Wan Hai 501 — S6AS7 — position and weather

sailwx.info

Track history (hours):
 
Tides and Currents Weather Stations Pressure Air Temp Water Temp Dewpoint Dewpoint Depression Visibility Wind Speed Wind Dir Waves Ship Positions

Wan Hai 501

Last reported at 2016-May-25 04:27 UTC. Time now 2016-May-27 00:20 UTC.
Position N 30°45' E 122°54'.

Length 269 m; draft 9.7 m.

Type: Cargo ship. MMSI: 563382000.

Date/timePositionNaut miles runAvg speedWind from/ knotsBaromVisibWave heightAir tempDewpointWater temp
2016-May-25 04:27N 30°45' E 122°54'1415.5
2016-May-25 03:33N 30°32' E 122°60'4615.3
2016-May-25 00:32N 29°46' E 122°54'1715.4
2016-May-24 23:27N 29°30' E 122°47'2015.1
2016-May-24 22:07N 29°12' E 122°39'1015.0
2016-May-24 21:29N 29°03' E 122°35'33615.1
2016-May-23 23:19N 24°26' E 119°03'4315.1
2016-May-23 20:29N 23°57' E 118°28'  
2016-May-19 13:33N 01°15' E 104°11'1413.7
2016-May-19 12:33N 01°14' E 103°57'1111.0
2016-May-19 11:33N 01°15' E 103°46'2 2.1
2016-May-19 10:28N 01°17' E 103°46'0 0.0
2016-May-19 09:29N 01°17' E 103°46'0 0.0
2016-May-19 08:32N 01°17' E 103°46'0 0.0
2016-May-19 07:29N 01°17' E 103°46'0 0.0
2016-May-19 06:32N 01°17' E 103°46'0 0.0
2016-May-19 05:32N 01°17' E 103°46'0 0.0
2016-May-19 04:29N 01°17' E 103°46'0 0.0
2016-May-19 03:32N 01°17' E 103°46'0 0.0
2016-May-19 02:32N 01°17' E 103°46'0 0.0
2016-May-19 01:29N 01°17' E 103°46'0 0.0
2016-May-19 00:29N 01°17' E 103°46'0 0.1
2016-May-18 23:33N 01°17' E 103°46'2 2.4
2016-May-18 22:33N 01°15' E 103°45'9 8.5
2016-May-18 21:33N 01°13' E 103°37'6 5.8
2016-May-18 20:33N 01°11' E 103°31'9 8.0
2016-May-18 19:24N 01°14' E 103°22'2714.3
2016-May-18 17:31N 01°29' E 103°00'3214.6
2016-May-18 15:18N 01°45' E 102°32'1114.9
2016-May-18 14:33N 01°50' E 102°22'  
Track history (hours):
 
Tides and Currents Weather Stations Pressure Air Temp Water Temp Dewpoint Dewpoint Depression Visibility Wind Speed Wind Dir Waves Ship Positions

Wan Hai 501

Last reported at 2016-May-25 04:27 UTC. Time now 2016-May-27 00:20 UTC.
Position N 30°45' E 122°54'.

Length 269 m; draft 9.7 m.

Type: Cargo ship. MMSI: 563382000.

Date/timePositionNaut miles runAvg speedWind from/ knotsBaromVisibWave heightAir tempDewpointWater temp
2016-May-25 04:27N 30°45' E 122°54'1415.5
2016-May-25 03:33N 30°32' E 122°60'4615.3
2016-May-25 00:32N 29°46' E 122°54'1715.4
2016-May-24 23:27N 29°30' E 122°47'2015.1
2016-May-24 22:07N 29°12' E 122°39'1015.0
2016-May-24 21:29N 29°03' E 122°35'33615.1
2016-May-23 23:19N 24°26' E 119°03'4315.1
2016-May-23 20:29N 23°57' E 118°28'  
2016-May-19 13:33N 01°15' E 104°11'1413.7
2016-May-19 12:33N 01°14' E 103°57'1111.0
2016-May-19 11:33N 01°15' E 103°46'2 2.1
2016-May-19 10:28N 01°17' E 103°46'0 0.0
2016-May-19 09:29N 01°17' E 103°46'0 0.0
2016-May-19 08:32N 01°17' E 103°46'0 0.0
2016-May-19 07:29N 01°17' E 103°46'0 0.0
2016-May-19 06:32N 01°17' E 103°46'0 0.0
2016-May-19 05:32N 01°17' E 103°46'0 0.0
2016-May-19 04:29N 01°17' E 103°46'0 0.0
2016-May-19 03:32N 01°17' E 103°46'0 0.0
2016-May-19 02:32N 01°17' E 103°46'0 0.0
2016-May-19 01:29N 01°17' E 103°46'0 0.0
2016-May-19 00:29N 01°17' E 103°46'0 0.1
2016-May-18 23:33N 01°17' E 103°46'2 2.4
2016-May-18 22:33N 01°15' E 103°45'9 8.5
2016-May-18 21:33N 01°13' E 103°37'6 5.8
2016-May-18 20:33N 01°11' E 103°31'9 8.0
2016-May-18 19:24N 01°14' E 103°22'2714.3
2016-May-18 17:31N 01°29' E 103°00'3214.6
2016-May-18 15:18N 01°45' E 102°32'1114.9
2016-May-18 14:33N 01°50' E 102°22'  

Dump ship's entire track history